sensor_id;sensor_type;location;lat;lon;timestamp;P1;durP1;ratioP1;P2;durP2;ratioP2
11709;SDS011;5911;51.036;6.972;2022-11-18T00:02:14;4.77;;;2.90;;
11709;SDS011;5911;51.036;6.972;2022-11-18T00:04:42;4.83;;;2.70;;
11709;SDS011;5911;51.036;6.972;2022-11-18T00:07:11;4.93;;;2.40;;
11709;SDS011;5911;51.036;6.972;2022-11-18T00:09:39;7.80;;;3.07;;
11709;SDS011;5911;51.036;6.972;2022-11-18T00:12:07;5.77;;;2.70;;
11709;SDS011;5911;51.036;6.972;2022-11-18T00:14:52;7.33;;;2.80;;
11709;SDS011;5911;51.036;6.972;2022-11-18T00:17:20;6.27;;;2.83;;
11709;SDS011;5911;51.036;6.972;2022-11-18T00:19:48;7.90;;;2.90;;
11709;SDS011;5911;51.036;6.972;2022-11-18T00:22:17;6.47;;;3.00;;
11709;SDS011;5911;51.036;6.972;2022-11-18T00:24:44;6.80;;;3.47;;
11709;SDS011;5911;51.036;6.972;2022-11-18T00:27:12;6.70;;;3.77;;
11709;SDS011;5911;51.036;6.972;2022-11-18T00:29:40;7.53;;;3.40;;
11709;SDS011;5911;51.036;6.972;2022-11-18T00:32:08;4.37;;;3.20;;
11709;SDS011;5911;51.036;6.972;2022-11-18T00:34:36;6.90;;;3.30;;
11709;SDS011;5911;51.036;6.972;2022-11-18T00:37:04;7.07;;;3.10;;
11709;SDS011;5911;51.036;6.972;2022-11-18T00:39:33;5.60;;;2.97;;
11709;SDS011;5911;51.036;6.972;2022-11-18T00:42:00;6.77;;;3.00;;
11709;SDS011;5911;51.036;6.972;2022-11-18T00:44:45;5.60;;;2.83;;
11709;SDS011;5911;51.036;6.972;2022-11-18T00:47:13;6.37;;;2.90;;
11709;SDS011;5911;51.036;6.972;2022-11-18T00:49:41;7.47;;;3.10;;
11709;SDS011;5911;51.036;6.972;2022-11-18T00:52:08;8.73;;;3.00;;
11709;SDS011;5911;51.036;6.972;2022-11-18T00:54:38;5.77;;;3.23;;
11709;SDS011;5911;51.036;6.972;2022-11-18T00:57:05;5.30;;;2.77;;
11709;SDS011;5911;51.036;6.972;2022-11-18T00:59:33;7.17;;;3.00;;
11709;SDS011;5911;51.036;6.972;2022-11-18T01:02:01;7.27;;;3.67;;
11709;SDS011;5911;51.036;6.972;2022-11-18T01:04:29;10.40;;;3.13;;
11709;SDS011;5911;51.036;6.972;2022-11-18T01:06:57;5.70;;;2.83;;
11709;SDS011;5911;51.036;6.972;2022-11-18T01:09:24;6.27;;;2.90;;
11709;SDS011;5911;51.036;6.972;2022-11-18T01:11:54;6.80;;;2.63;;
11709;SDS011;5911;51.036;6.972;2022-11-18T01:14:39;9.13;;;2.70;;
11709;SDS011;5911;51.036;6.972;2022-11-18T01:17:07;5.33;;;2.70;;
11709;SDS011;5911;51.036;6.972;2022-11-18T01:19:35;5.97;;;2.03;;
11709;SDS011;5911;51.036;6.972;2022-11-18T01:22:02;6.23;;;2.50;;
11709;SDS011;5911;51.036;6.972;2022-11-18T01:24:31;9.27;;;3.20;;
11709;SDS011;5911;51.036;6.972;2022-11-18T01:27:01;7.23;;;2.80;;
11709;SDS011;5911;51.036;6.972;2022-11-18T01:29:29;6.93;;;2.40;;
11709;SDS011;5911;51.036;6.972;2022-11-18T01:31:57;4.43;;;2.47;;
11709;SDS011;5911;51.036;6.972;2022-11-18T01:34:45;7.03;;;3.10;;
11709;SDS011;5911;51.036;6.972;2022-11-18T01:37:12;8.07;;;2.30;;
11709;SDS011;5911;51.036;6.972;2022-11-18T01:39:40;5.50;;;3.07;;
11709;SDS011;5911;51.036;6.972;2022-11-18T01:42:11;6.03;;;2.53;;
11709;SDS011;5911;51.036;6.972;2022-11-18T01:45:01;5.90;;;2.60;;
11709;SDS011;5911;51.036;6.972;2022-11-18T01:47:35;6.40;;;2.30;;
11709;SDS011;5911;51.036;6.972;2022-11-18T01:50:07;6.10;;;2.50;;
11709;SDS011;5911;51.036;6.972;2022-11-18T01:52:36;8.03;;;2.60;;
11709;SDS011;5911;51.036;6.972;2022-11-18T01:55:06;6.40;;;2.80;;
11709;SDS011;5911;51.036;6.972;2022-11-18T01:57:39;7.97;;;2.90;;
11709;SDS011;5911;51.036;6.972;2022-11-18T02:00:08;7.37;;;3.10;;
11709;SDS011;5911;51.036;6.972;2022-11-18T02:02:37;7.60;;;2.80;;
11709;SDS011;5911;51.036;6.972;2022-11-18T02:05:05;6.67;;;2.90;;
11709;SDS011;5911;51.036;6.972;2022-11-18T02:07:36;8.97;;;2.90;;
11709;SDS011;5911;51.036;6.972;2022-11-18T02:10:08;7.50;;;2.73;;
11709;SDS011;5911;51.036;6.972;2022-11-18T02:12:44;9.27;;;2.90;;
11709;SDS011;5911;51.036;6.972;2022-11-18T02:15:12;9.43;;;2.77;;
11709;SDS011;5911;51.036;6.972;2022-11-18T02:17:43;6.93;;;2.40;;
11709;SDS011;5911;51.036;6.972;2022-11-18T02:26:17;4.67;;;2.40;;
11709;SDS011;5911;51.036;6.972;2022-11-18T02:29:09;5.07;;;2.37;;
11709;SDS011;5911;51.036;6.972;2022-11-18T02:31:44;5.23;;;2.77;;
11709;SDS011;5911;51.036;6.972;2022-11-18T02:34:21;7.00;;;3.00;;
11709;SDS011;5911;51.036;6.972;2022-11-18T02:36:58;8.03;;;2.57;;
11709;SDS011;5911;51.036;6.972;2022-11-18T02:39:32;8.43;;;3.00;;
11709;SDS011;5911;51.036;6.972;2022-11-18T02:42:03;5.73;;;2.80;;
11709;SDS011;5911;51.036;6.972;2022-11-18T02:44:37;5.63;;;2.60;;
11709;SDS011;5911;51.036;6.972;2022-11-18T02:47:09;7.10;;;2.50;;
11709;SDS011;5911;51.036;6.972;2022-11-18T02:49:41;6.30;;;2.43;;
11709;SDS011;5911;51.036;6.972;2022-11-18T02:52:12;6.53;;;2.67;;
11709;SDS011;5911;51.036;6.972;2022-11-18T02:54:43;8.70;;;2.17;;
11709;SDS011;5911;51.036;6.972;2022-11-18T02:57:14;5.40;;;2.70;;
11709;SDS011;5911;51.036;6.972;2022-11-18T02:59:43;7.80;;;2.77;;
11709;SDS011;5911;51.036;6.972;2022-11-18T03:02:13;6.87;;;2.90;;
11709;SDS011;5911;51.036;6.972;2022-11-18T03:04:43;7.53;;;3.13;;
11709;SDS011;5911;51.036;6.972;2022-11-18T03:07:14;8.00;;;3.33;;
11709;SDS011;5911;51.036;6.972;2022-11-18T03:09:48;7.63;;;2.70;;
11709;SDS011;5911;51.036;6.972;2022-11-18T03:12:21;7.60;;;2.20;;
11709;SDS011;5911;51.036;6.972;2022-11-18T03:15:02;5.93;;;2.20;;
11709;SDS011;5911;51.036;6.972;2022-11-18T03:17:42;7.30;;;2.87;;
11709;SDS011;5911;51.036;6.972;2022-11-18T03:20:17;6.23;;;2.53;;
11709;SDS011;5911;51.036;6.972;2022-11-18T03:22:49;8.00;;;3.13;;
11709;SDS011;5911;51.036;6.972;2022-11-18T03:25:22;8.13;;;3.67;;
11709;SDS011;5911;51.036;6.972;2022-11-18T03:27:56;8.83;;;3.27;;
11709;SDS011;5911;51.036;6.972;2022-11-18T03:30:30;5.60;;;2.73;;
11709;SDS011;5911;51.036;6.972;2022-11-18T03:33:02;7.70;;;2.87;;
11709;SDS011;5911;51.036;6.972;2022-11-18T03:35:35;5.50;;;2.63;;
11709;SDS011;5911;51.036;6.972;2022-11-18T03:38:07;6.30;;;2.37;;
11709;SDS011;5911;51.036;6.972;2022-11-18T03:40:40;5.43;;;2.17;;
11709;SDS011;5911;51.036;6.972;2022-11-18T03:43:15;6.60;;;2.20;;
11709;SDS011;5911;51.036;6.972;2022-11-18T03:45:49;5.90;;;2.33;;
11709;SDS011;5911;51.036;6.972;2022-11-18T03:48:21;7.47;;;2.70;;
11709;SDS011;5911;51.036;6.972;2022-11-18T03:50:53;4.97;;;2.10;;
11709;SDS011;5911;51.036;6.972;2022-11-18T03:53:26;5.13;;;2.20;;
11709;SDS011;5911;51.036;6.972;2022-11-18T03:56:00;5.40;;;2.23;;
11709;SDS011;5911;51.036;6.972;2022-11-18T03:58:44;7.77;;;2.30;;
11709;SDS011;5911;51.036;6.972;2022-11-18T04:01:20;5.20;;;2.30;;
11709;SDS011;5911;51.036;6.972;2022-11-18T04:03:51;6.43;;;2.23;;
11709;SDS011;5911;51.036;6.972;2022-11-18T04:06:20;5.97;;;2.27;;
11709;SDS011;5911;51.036;6.972;2022-11-18T04:08:53;6.10;;;2.33;;
11709;SDS011;5911;51.036;6.972;2022-11-18T04:11:26;6.93;;;2.40;;
11709;SDS011;5911;51.036;6.972;2022-11-18T04:14:15;9.93;;;3.20;;
11709;SDS011;5911;51.036;6.972;2022-11-18T04:16:48;5.57;;;2.23;;
11709;SDS011;5911;51.036;6.972;2022-11-18T04:19:18;3.27;;;2.40;;
11709;SDS011;5911;51.036;6.972;2022-11-18T04:21:47;3.33;;;1.93;;
11709;SDS011;5911;51.036;6.972;2022-11-18T04:24:15;6.07;;;2.47;;
11709;SDS011;5911;51.036;6.972;2022-11-18T04:26:43;6.83;;;2.47;;
11709;SDS011;5911;51.036;6.972;2022-11-18T04:29:11;9.73;;;2.40;;
11709;SDS011;5911;51.036;6.972;2022-11-18T04:31:39;4.83;;;2.47;;
11709;SDS011;5911;51.036;6.972;2022-11-18T04:34:08;5.67;;;2.50;;
11709;SDS011;5911;51.036;6.972;2022-11-18T04:36:35;8.13;;;2.90;;
11709;SDS011;5911;51.036;6.972;2022-11-18T04:39:03;8.23;;;3.03;;
11709;SDS011;5911;51.036;6.972;2022-11-18T04:41:31;6.17;;;3.20;;
11709;SDS011;5911;51.036;6.972;2022-11-18T04:44:16;8.73;;;3.00;;
11709;SDS011;5911;51.036;6.972;2022-11-18T04:46:44;10.60;;;3.07;;
11709;SDS011;5911;51.036;6.972;2022-11-18T04:49:13;5.27;;;3.10;;
11709;SDS011;5911;51.036;6.972;2022-11-18T04:51:42;6.43;;;2.83;;
11709;SDS011;5911;51.036;6.972;2022-11-18T04:54:11;8.20;;;3.83;;
11709;SDS011;5911;51.036;6.972;2022-11-18T04:56:40;5.20;;;2.50;;
11709;SDS011;5911;51.036;6.972;2022-11-18T04:59:15;8.20;;;2.83;;
11709;SDS011;5911;51.036;6.972;2022-11-18T05:01:45;7.00;;;2.90;;
11709;SDS011;5911;51.036;6.972;2022-11-18T05:04:15;5.13;;;2.40;;
11709;SDS011;5911;51.036;6.972;2022-11-18T05:06:45;6.23;;;2.20;;
11709;SDS011;5911;51.036;6.972;2022-11-18T05:09:13;3.33;;;2.30;;
11709;SDS011;5911;51.036;6.972;2022-11-18T05:11:45;4.80;;;2.30;;
11709;SDS011;5911;51.036;6.972;2022-11-18T05:14:30;6.17;;;2.70;;
11709;SDS011;5911;51.036;6.972;2022-11-18T05:16:58;4.83;;;2.30;;
11709;SDS011;5911;51.036;6.972;2022-11-18T05:19:29;7.20;;;2.60;;
11709;SDS011;5911;51.036;6.972;2022-11-18T05:21:57;5.90;;;2.43;;
11709;SDS011;5911;51.036;6.972;2022-11-18T05:24:25;5.57;;;2.97;;
11709;SDS011;5911;51.036;6.972;2022-11-18T05:26:53;5.63;;;2.57;;
11709;SDS011;5911;51.036;6.972;2022-11-18T05:29:21;4.90;;;2.50;;
11709;SDS011;5911;51.036;6.972;2022-11-18T05:31:49;4.97;;;2.70;;
11709;SDS011;5911;51.036;6.972;2022-11-18T05:34:17;6.90;;;2.70;;
11709;SDS011;5911;51.036;6.972;2022-11-18T05:36:47;5.37;;;2.60;;
11709;SDS011;5911;51.036;6.972;2022-11-18T05:39:15;7.87;;;2.70;;
11709;SDS011;5911;51.036;6.972;2022-11-18T05:41:43;5.50;;;2.60;;
11709;SDS011;5911;51.036;6.972;2022-11-18T05:44:28;4.90;;;2.63;;
11709;SDS011;5911;51.036;6.972;2022-11-18T05:46:56;6.13;;;2.60;;
11709;SDS011;5911;51.036;6.972;2022-11-18T05:49:25;4.40;;;2.43;;
11709;SDS011;5911;51.036;6.972;2022-11-18T05:51:54;5.03;;;2.30;;
11709;SDS011;5911;51.036;6.972;2022-11-18T05:54:22;3.70;;;2.23;;
11709;SDS011;5911;51.036;6.972;2022-11-18T05:56:50;6.73;;;2.73;;
11709;SDS011;5911;51.036;6.972;2022-11-18T05:59:18;8.17;;;2.80;;
11709;SDS011;5911;51.036;6.972;2022-11-18T06:01:48;4.23;;;2.83;;
11709;SDS011;5911;51.036;6.972;2022-11-18T06:04:21;4.03;;;2.30;;
11709;SDS011;5911;51.036;6.972;2022-11-18T06:06:54;8.57;;;2.73;;
11709;SDS011;5911;51.036;6.972;2022-11-18T06:09:32;6.57;;;2.53;;
11709;SDS011;5911;51.036;6.972;2022-11-18T06:12:04;3.17;;;2.47;;
11709;SDS011;5911;51.036;6.972;2022-11-18T06:14:39;5.50;;;2.30;;
11709;SDS011;5911;51.036;6.972;2022-11-18T06:17:12;4.93;;;2.50;;
11709;SDS011;5911;51.036;6.972;2022-11-18T06:19:44;7.00;;;2.80;;
11709;SDS011;5911;51.036;6.972;2022-11-18T06:22:13;3.77;;;2.07;;
11709;SDS011;5911;51.036;6.972;2022-11-18T06:24:41;5.27;;;2.30;;
11709;SDS011;5911;51.036;6.972;2022-11-18T06:27:10;8.53;;;2.93;;
11709;SDS011;5911;51.036;6.972;2022-11-18T06:29:39;3.63;;;2.27;;
11709;SDS011;5911;51.036;6.972;2022-11-18T06:32:07;5.83;;;2.63;;
11709;SDS011;5911;51.036;6.972;2022-11-18T06:34:36;7.30;;;3.27;;
11709;SDS011;5911;51.036;6.972;2022-11-18T06:37:11;5.13;;;2.67;;
11709;SDS011;5911;51.036;6.972;2022-11-18T06:39:41;6.17;;;2.70;;
11709;SDS011;5911;51.036;6.972;2022-11-18T06:42:09;7.17;;;2.70;;
11709;SDS011;5911;51.036;6.972;2022-11-18T06:44:37;5.33;;;2.87;;
11709;SDS011;5911;51.036;6.972;2022-11-18T06:47:04;6.63;;;2.50;;
11709;SDS011;5911;51.036;6.972;2022-11-18T06:49:31;5.10;;;2.70;;
11709;SDS011;5911;51.036;6.972;2022-11-18T06:51:59;5.60;;;3.20;;
11709;SDS011;5911;51.036;6.972;2022-11-18T06:54:27;4.73;;;2.53;;
11709;SDS011;5911;51.036;6.972;2022-11-18T06:56:56;5.27;;;2.63;;
11709;SDS011;5911;51.036;6.972;2022-11-18T06:59:24;6.20;;;2.70;;
11709;SDS011;5911;51.036;6.972;2022-11-18T07:01:52;4.67;;;2.30;;
11709;SDS011;5911;51.036;6.972;2022-11-18T07:04:20;4.70;;;3.00;;
11709;SDS011;5911;51.036;6.972;2022-11-18T07:06:47;4.97;;;3.00;;
11709;SDS011;5911;51.036;6.972;2022-11-18T07:09:15;7.07;;;2.90;;
11709;SDS011;5911;51.036;6.972;2022-11-18T07:11:43;6.10;;;3.13;;
11709;SDS011;5911;51.036;6.972;2022-11-18T07:14:13;5.07;;;2.60;;
11709;SDS011;5911;51.036;6.972;2022-11-18T07:16:40;4.73;;;3.07;;
11709;SDS011;5911;51.036;6.972;2022-11-18T07:19:09;6.60;;;2.77;;
11709;SDS011;5911;51.036;6.972;2022-11-18T07:21:38;4.50;;;3.20;;
11709;SDS011;5911;51.036;6.972;2022-11-18T07:24:08;7.13;;;3.20;;
11709;SDS011;5911;51.036;6.972;2022-11-18T07:26:39;5.67;;;3.13;;
11709;SDS011;5911;51.036;6.972;2022-11-18T07:29:07;5.30;;;2.77;;
11709;SDS011;5911;51.036;6.972;2022-11-18T07:31:37;6.97;;;3.10;;
11709;SDS011;5911;51.036;6.972;2022-11-18T07:34:05;5.70;;;2.80;;
11709;SDS011;5911;51.036;6.972;2022-11-18T07:36:33;5.30;;;3.00;;
11709;SDS011;5911;51.036;6.972;2022-11-18T07:39:05;4.73;;;3.07;;
11709;SDS011;5911;51.036;6.972;2022-11-18T07:41:45;5.30;;;2.90;;
11709;SDS011;5911;51.036;6.972;2022-11-18T07:44:13;4.60;;;2.83;;
11709;SDS011;5911;51.036;6.972;2022-11-18T07:46:44;8.30;;;2.87;;
11709;SDS011;5911;51.036;6.972;2022-11-18T07:49:12;3.63;;;2.80;;
11709;SDS011;5911;51.036;6.972;2022-11-18T07:51:40;5.93;;;3.00;;
11709;SDS011;5911;51.036;6.972;2022-11-18T07:54:09;3.97;;;2.83;;
11709;SDS011;5911;51.036;6.972;2022-11-18T07:56:38;6.30;;;2.70;;
11709;SDS011;5911;51.036;6.972;2022-11-18T07:59:06;4.53;;;2.67;;
11709;SDS011;5911;51.036;6.972;2022-11-18T08:01:34;7.03;;;3.07;;
11709;SDS011;5911;51.036;6.972;2022-11-18T08:04:07;8.70;;;3.07;;
11709;SDS011;5911;51.036;6.972;2022-11-18T08:06:36;5.50;;;3.03;;
11709;SDS011;5911;51.036;6.972;2022-11-18T08:09:06;8.80;;;3.73;;
11709;SDS011;5911;51.036;6.972;2022-11-18T08:11:34;5.27;;;2.93;;
11709;SDS011;5911;51.036;6.972;2022-11-18T08:14:02;6.90;;;3.60;;
11709;SDS011;5911;51.036;6.972;2022-11-18T08:16:30;7.00;;;3.00;;
11709;SDS011;5911;51.036;6.972;2022-11-18T08:18:58;7.37;;;3.63;;
11709;SDS011;5911;51.036;6.972;2022-11-18T08:21:27;7.17;;;3.80;;
11709;SDS011;5911;51.036;6.972;2022-11-18T08:23:56;6.43;;;3.33;;
11709;SDS011;5911;51.036;6.972;2022-11-18T08:26:25;5.80;;;3.63;;
11709;SDS011;5911;51.036;6.972;2022-11-18T08:28:53;8.90;;;3.57;;
11709;SDS011;5911;51.036;6.972;2022-11-18T08:31:22;6.20;;;4.17;;
11709;SDS011;5911;51.036;6.972;2022-11-18T08:33:53;7.67;;;3.63;;
11709;SDS011;5911;51.036;6.972;2022-11-18T08:36:21;7.50;;;3.80;;
11709;SDS011;5911;51.036;6.972;2022-11-18T08:38:53;7.27;;;3.40;;
11709;SDS011;5911;51.036;6.972;2022-11-18T08:41:24;6.23;;;3.77;;
11709;SDS011;5911;51.036;6.972;2022-11-18T08:43:55;11.03;;;4.30;;
11709;SDS011;5911;51.036;6.972;2022-11-18T08:46:23;6.73;;;3.47;;
11709;SDS011;5911;51.036;6.972;2022-11-18T08:48:51;8.17;;;4.20;;
11709;SDS011;5911;51.036;6.972;2022-11-18T08:51:19;9.60;;;4.13;;
11709;SDS011;5911;51.036;6.972;2022-11-18T08:53:46;11.03;;;4.53;;
11709;SDS011;5911;51.036;6.972;2022-11-18T08:56:17;8.80;;;4.50;;
11709;SDS011;5911;51.036;6.972;2022-11-18T08:58:46;8.00;;;4.20;;
11709;SDS011;5911;51.036;6.972;2022-11-18T09:01:14;5.60;;;3.60;;
11709;SDS011;5911;51.036;6.972;2022-11-18T09:03:42;6.07;;;2.90;;
11709;SDS011;5911;51.036;6.972;2022-11-18T09:06:11;8.73;;;2.80;;
11709;SDS011;5911;51.036;6.972;2022-11-18T09:08:40;6.20;;;2.83;;
11709;SDS011;5911;51.036;6.972;2022-11-18T09:11:10;4.83;;;2.73;;
11709;SDS011;5911;51.036;6.972;2022-11-18T09:13:40;6.07;;;2.57;;
11709;SDS011;5911;51.036;6.972;2022-11-18T09:16:29;7.60;;;2.43;;
11709;SDS011;5911;51.036;6.972;2022-11-18T09:18:59;4.00;;;2.00;;
11709;SDS011;5911;51.036;6.972;2022-11-18T09:21:47;4.30;;;2.20;;
11709;SDS011;5911;51.036;6.972;2022-11-18T09:24:15;8.37;;;2.80;;
11709;SDS011;5911;51.036;6.972;2022-11-18T09:26:43;5.00;;;2.23;;
11709;SDS011;5911;51.036;6.972;2022-11-18T09:29:12;5.87;;;3.10;;
11709;SDS011;5911;51.036;6.972;2022-11-18T09:31:40;5.00;;;3.10;;
11709;SDS011;5911;51.036;6.972;2022-11-18T09:34:08;6.50;;;3.13;;
11709;SDS011;5911;51.036;6.972;2022-11-18T09:36:36;6.47;;;2.73;;
11709;SDS011;5911;51.036;6.972;2022-11-18T09:39:04;9.07;;;3.03;;
11709;SDS011;5911;51.036;6.972;2022-11-18T09:41:43;5.97;;;2.30;;
11709;SDS011;5911;51.036;6.972;2022-11-18T09:44:20;4.33;;;2.03;;
11709;SDS011;5911;51.036;6.972;2022-11-18T09:47:03;4.60;;;2.30;;
11709;SDS011;5911;51.036;6.972;2022-11-18T09:49:38;5.80;;;2.40;;
11709;SDS011;5911;51.036;6.972;2022-11-18T09:52:09;8.93;;;2.07;;
11709;SDS011;5911;51.036;6.972;2022-11-18T09:54:43;6.77;;;2.10;;
11709;SDS011;5911;51.036;6.972;2022-11-18T09:57:12;3.53;;;2.03;;
11709;SDS011;5911;51.036;6.972;2022-11-18T09:59:43;4.57;;;2.13;;
11709;SDS011;5911;51.036;6.972;2022-11-18T10:02:21;5.10;;;2.33;;
11709;SDS011;5911;51.036;6.972;2022-11-18T10:05:06;3.50;;;1.70;;
11709;SDS011;5911;51.036;6.972;2022-11-18T10:07:41;3.93;;;1.90;;
11709;SDS011;5911;51.036;6.972;2022-11-18T10:10:21;8.77;;;2.20;;
11709;SDS011;5911;51.036;6.972;2022-11-18T10:12:54;3.40;;;1.87;;
11709;SDS011;5911;51.036;6.972;2022-11-18T10:15:32;5.80;;;2.23;;
11709;SDS011;5911;51.036;6.972;2022-11-18T10:18:10;5.80;;;2.20;;
11709;SDS011;5911;51.036;6.972;2022-11-18T10:21:07;6.77;;;2.20;;
11709;SDS011;5911;51.036;6.972;2022-11-18T10:23:48;5.57;;;2.00;;
11709;SDS011;5911;51.036;6.972;2022-11-18T10:26:30;5.07;;;2.30;;
11709;SDS011;5911;51.036;6.972;2022-11-18T10:28:59;6.33;;;2.13;;
11709;SDS011;5911;51.036;6.972;2022-11-18T10:31:29;4.53;;;1.60;;
11709;SDS011;5911;51.036;6.972;2022-11-18T10:33:57;4.67;;;1.80;;
11709;SDS011;5911;51.036;6.972;2022-11-18T10:36:26;6.00;;;2.10;;
11709;SDS011;5911;51.036;6.972;2022-11-18T10:39:05;4.43;;;1.90;;
11709;SDS011;5911;51.036;6.972;2022-11-18T10:41:41;4.53;;;2.07;;
11709;SDS011;5911;51.036;6.972;2022-11-18T10:44:28;7.20;;;2.50;;
11709;SDS011;5911;51.036;6.972;2022-11-18T10:47:22;6.03;;;2.00;;
11709;SDS011;5911;51.036;6.972;2022-11-18T10:49:56;7.77;;;2.00;;
11709;SDS011;5911;51.036;6.972;2022-11-18T10:52:26;6.07;;;1.67;;
11709;SDS011;5911;51.036;6.972;2022-11-18T10:55:06;7.60;;;2.00;;
11709;SDS011;5911;51.036;6.972;2022-11-18T10:57:38;7.70;;;2.60;;
11709;SDS011;5911;51.036;6.972;2022-11-18T11:03:21;7.17;;;3.10;;
11709;SDS011;5911;51.036;6.972;2022-11-18T11:08:48;7.40;;;2.53;;
11709;SDS011;5911;51.036;6.972;2022-11-18T11:11:21;7.50;;;2.40;;
11709;SDS011;5911;51.036;6.972;2022-11-18T11:13:52;6.30;;;2.70;;
11709;SDS011;5911;51.036;6.972;2022-11-18T11:16:24;6.70;;;2.33;;
11709;SDS011;5911;51.036;6.972;2022-11-18T11:18:57;7.13;;;2.23;;
11709;SDS011;5911;51.036;6.972;2022-11-18T11:21:29;6.20;;;2.17;;
11709;SDS011;5911;51.036;6.972;2022-11-18T11:23:57;7.17;;;2.20;;
11709;SDS011;5911;51.036;6.972;2022-11-18T11:26:28;6.90;;;1.90;;
11709;SDS011;5911;51.036;6.972;2022-11-18T11:29:29;5.73;;;2.37;;
11709;SDS011;5911;51.036;6.972;2022-11-18T11:32:06;5.20;;;1.77;;
11709;SDS011;5911;51.036;6.972;2022-11-18T11:34:43;9.57;;;2.30;;
11709;SDS011;5911;51.036;6.972;2022-11-18T11:37:20;4.70;;;1.90;;
11709;SDS011;5911;51.036;6.972;2022-11-18T11:39:59;6.80;;;1.80;;
11709;SDS011;5911;51.036;6.972;2022-11-18T11:42:38;6.90;;;1.60;;
11709;SDS011;5911;51.036;6.972;2022-11-18T11:45:17;10.37;;;1.73;;
11709;SDS011;5911;51.036;6.972;2022-11-18T11:47:58;7.07;;;1.40;;
11709;SDS011;5911;51.036;6.972;2022-11-18T11:50:42;6.73;;;1.80;;
11709;SDS011;5911;51.036;6.972;2022-11-18T11:53:45;8.97;;;1.97;;
11709;SDS011;5911;51.036;6.972;2022-11-18T11:56:32;6.40;;;1.93;;
11709;SDS011;5911;51.036;6.972;2022-11-18T11:59:06;7.77;;;2.20;;
11709;SDS011;5911;51.036;6.972;2022-11-18T12:01:47;5.37;;;1.60;;
11709;SDS011;5911;51.036;6.972;2022-11-18T12:04:27;7.33;;;2.07;;
11709;SDS011;5911;51.036;6.972;2022-11-18T12:07:06;7.33;;;1.93;;
11709;SDS011;5911;51.036;6.972;2022-11-18T12:09:47;4.93;;;1.97;;
11709;SDS011;5911;51.036;6.972;2022-11-18T12:12:30;8.40;;;2.47;;
11709;SDS011;5911;51.036;6.972;2022-11-18T12:15:07;4.87;;;2.33;;
11709;SDS011;5911;51.036;6.972;2022-11-18T12:17:47;5.27;;;2.50;;
11709;SDS011;5911;51.036;6.972;2022-11-18T12:20:42;7.53;;;2.53;;
11709;SDS011;5911;51.036;6.972;2022-11-18T12:23:18;4.93;;;2.10;;
11709;SDS011;5911;51.036;6.972;2022-11-18T12:25:51;5.83;;;2.30;;
11709;SDS011;5911;51.036;6.972;2022-11-18T12:28:24;4.93;;;2.17;;
11709;SDS011;5911;51.036;6.972;2022-11-18T12:33:56;3.77;;;2.17;;
11709;SDS011;5911;51.036;6.972;2022-11-18T12:36:26;10.77;;;2.63;;
11709;SDS011;5911;51.036;6.972;2022-11-18T12:39:44;4.77;;;2.40;;
11709;SDS011;5911;51.036;6.972;2022-11-18T12:45:47;8.23;;;2.37;;
11709;SDS011;5911;51.036;6.972;2022-11-18T12:48:26;6.97;;;1.87;;
11709;SDS011;5911;51.036;6.972;2022-11-18T12:50:56;4.00;;;1.93;;
11709;SDS011;5911;51.036;6.972;2022-11-18T12:53:34;6.10;;;2.20;;
11709;SDS011;5911;51.036;6.972;2022-11-18T12:56:17;9.67;;;2.23;;
11709;SDS011;5911;51.036;6.972;2022-11-18T12:58:48;6.17;;;2.10;;
11709;SDS011;5911;51.036;6.972;2022-11-18T13:01:19;4.63;;;2.27;;
11709;SDS011;5911;51.036;6.972;2022-11-18T13:03:49;3.67;;;2.20;;
11709;SDS011;5911;51.036;6.972;2022-11-18T13:06:22;7.77;;;2.50;;
11709;SDS011;5911;51.036;6.972;2022-11-18T13:08:52;4.13;;;2.03;;
11709;SDS011;5911;51.036;6.972;2022-11-18T13:11:26;3.13;;;2.23;;
11709;SDS011;5911;51.036;6.972;2022-11-18T13:14:14;6.20;;;2.00;;
11709;SDS011;5911;51.036;6.972;2022-11-18T13:17:01;5.83;;;2.20;;
11709;SDS011;5911;51.036;6.972;2022-11-18T13:19:58;8.13;;;2.20;;
11709;SDS011;5911;51.036;6.972;2022-11-18T13:22:26;6.10;;;2.53;;
11709;SDS011;5911;51.036;6.972;2022-11-18T13:25:21;8.07;;;2.77;;
11709;SDS011;5911;51.036;6.972;2022-11-18T13:27:53;6.67;;;2.90;;
11709;SDS011;5911;51.036;6.972;2022-11-18T13:30:31;8.20;;;2.20;;
11709;SDS011;5911;51.036;6.972;2022-11-18T13:33:02;7.93;;;2.40;;
11709;SDS011;5911;51.036;6.972;2022-11-18T13:35:30;4.33;;;2.47;;
11709;SDS011;5911;51.036;6.972;2022-11-18T13:38:15;5.83;;;2.60;;
11709;SDS011;5911;51.036;6.972;2022-11-18T13:40:53;5.17;;;2.20;;
11709;SDS011;5911;51.036;6.972;2022-11-18T13:43:34;6.03;;;2.30;;
11709;SDS011;5911;51.036;6.972;2022-11-18T13:46:02;5.10;;;2.70;;
11709;SDS011;5911;51.036;6.972;2022-11-18T13:48:33;8.53;;;2.77;;
11709;SDS011;5911;51.036;6.972;2022-11-18T13:51:08;3.73;;;2.10;;
11709;SDS011;5911;51.036;6.972;2022-11-18T13:53:39;5.50;;;2.07;;
11709;SDS011;5911;51.036;6.972;2022-11-18T13:56:18;6.37;;;2.27;;
11709;SDS011;5911;51.036;6.972;2022-11-18T13:59:01;5.43;;;2.47;;
11709;SDS011;5911;51.036;6.972;2022-11-18T14:01:46;9.43;;;2.80;;
11709;SDS011;5911;51.036;6.972;2022-11-18T14:04:21;6.30;;;2.67;;
11709;SDS011;5911;51.036;6.972;2022-11-18T14:06:50;8.23;;;2.90;;
11709;SDS011;5911;51.036;6.972;2022-11-18T14:09:20;7.80;;;2.20;;
11709;SDS011;5911;51.036;6.972;2022-11-18T14:11:59;6.83;;;2.00;;
11709;SDS011;5911;51.036;6.972;2022-11-18T14:14:31;7.50;;;2.50;;
11709;SDS011;5911;51.036;6.972;2022-11-18T14:17:11;4.17;;;2.27;;
11709;SDS011;5911;51.036;6.972;2022-11-18T14:19:51;5.17;;;2.33;;
11709;SDS011;5911;51.036;6.972;2022-11-18T14:22:21;9.10;;;2.43;;
11709;SDS011;5911;51.036;6.972;2022-11-18T14:24:54;8.93;;;2.60;;
11709;SDS011;5911;51.036;6.972;2022-11-18T14:27:36;7.53;;;2.67;;
11709;SDS011;5911;51.036;6.972;2022-11-18T14:30:27;4.33;;;2.00;;
11709;SDS011;5911;51.036;6.972;2022-11-18T14:33:10;6.37;;;2.63;;
11709;SDS011;5911;51.036;6.972;2022-11-18T14:35:41;11.80;;;2.70;;
11709;SDS011;5911;51.036;6.972;2022-11-18T14:38:11;6.43;;;2.60;;
11709;SDS011;5911;51.036;6.972;2022-11-18T14:41:04;5.20;;;2.73;;
11709;SDS011;5911;51.036;6.972;2022-11-18T14:43:33;6.83;;;2.30;;
11709;SDS011;5911;51.036;6.972;2022-11-18T14:46:03;5.13;;;2.30;;
11709;SDS011;5911;51.036;6.972;2022-11-18T14:48:32;8.70;;;2.57;;
11709;SDS011;5911;51.036;6.972;2022-11-18T14:51:01;5.73;;;2.37;;
11709;SDS011;5911;51.036;6.972;2022-11-18T14:53:29;7.67;;;3.00;;
11709;SDS011;5911;51.036;6.972;2022-11-18T14:55:59;7.00;;;2.33;;
11709;SDS011;5911;51.036;6.972;2022-11-18T14:58:27;3.53;;;2.13;;
11709;SDS011;5911;51.036;6.972;2022-11-18T15:00:56;6.93;;;2.23;;
11709;SDS011;5911;51.036;6.972;2022-11-18T15:03:25;6.27;;;2.67;;
11709;SDS011;5911;51.036;6.972;2022-11-18T15:05:53;6.67;;;2.40;;
11709;SDS011;5911;51.036;6.972;2022-11-18T15:08:23;6.00;;;2.57;;
11709;SDS011;5911;51.036;6.972;2022-11-18T15:10:54;5.83;;;2.50;;
11709;SDS011;5911;51.036;6.972;2022-11-18T15:13:27;4.17;;;2.50;;
11709;SDS011;5911;51.036;6.972;2022-11-18T15:15:55;5.33;;;2.70;;
11709;SDS011;5911;51.036;6.972;2022-11-18T15:18:23;8.63;;;2.70;;
11709;SDS011;5911;51.036;6.972;2022-11-18T15:20:52;5.03;;;2.07;;
11709;SDS011;5911;51.036;6.972;2022-11-18T15:23:20;5.90;;;2.50;;
11709;SDS011;5911;51.036;6.972;2022-11-18T15:25:54;6.07;;;2.87;;
11709;SDS011;5911;51.036;6.972;2022-11-18T15:28:25;5.63;;;2.60;;
11709;SDS011;5911;51.036;6.972;2022-11-18T15:30:55;6.17;;;2.30;;
11709;SDS011;5911;51.036;6.972;2022-11-18T15:33:23;7.10;;;3.03;;
11709;SDS011;5911;51.036;6.972;2022-11-18T15:35:52;5.73;;;2.23;;
11709;SDS011;5911;51.036;6.972;2022-11-18T15:38:20;7.30;;;2.70;;
11709;SDS011;5911;51.036;6.972;2022-11-18T15:40:48;8.43;;;3.00;;
11709;SDS011;5911;51.036;6.972;2022-11-18T15:43:16;8.87;;;2.87;;
11709;SDS011;5911;51.036;6.972;2022-11-18T15:45:43;5.97;;;2.57;;
11709;SDS011;5911;51.036;6.972;2022-11-18T15:48:12;4.40;;;2.47;;
11709;SDS011;5911;51.036;6.972;2022-11-18T15:50:40;7.93;;;3.00;;
11709;SDS011;5911;51.036;6.972;2022-11-18T15:53:09;4.47;;;2.77;;